Time;durP1;ratioP1;P1;durP2;ratioP2;P2;SDS_P1;SDS_P2;PMS_P1;PMS_P2;Temp;Humidity;BMP_temperature;BMP_pressure;BME280_temperature;BME280_humidity;BME280_pressure;Samples;Min_cycle;Max_cycle;Signal;HPM_P1;HPM_P2
2022/02/21 00:00:23;;;;;;;2.50;1.13;;;10.60;1.00;;;;;;5080772;28;20762;-78
2022/02/21 00:02:53;;;;;;;3.80;0.83;;;10.70;1.00;;;;;;5074031;28;20397;-75
2022/02/21 00:05:22;;;;;;;2.40;1.00;;;10.60;1.00;;;;;;5087612;28;20876;-76
2022/02/21 00:07:48;;;;;;;0.90;0.80;;;10.60;1.00;;;;;;5083391;28;20427;-75
2022/02/21 00:10:17;;;;;;;2.80;0.90;;;10.70;1.00;;;;;;5093226;28;20393;-76
2022/02/21 00:12:44;;;;;;;1.93;0.80;;;10.70;1.00;;;;;;5083743;28;20540;-75
2022/02/21 00:15:13;;;;;;;1.03;0.80;;;10.70;1.00;;;;;;5092438;28;20446;-76
2022/02/21 00:17:40;;;;;;;2.60;0.80;;;10.80;1.00;;;;;;5079230;28;20469;-77
2022/02/21 00:20:23;;;;;;;8.23;0.63;;;10.80;1.00;;;;;;5074658;28;20413;-79
2022/02/21 00:23:05;;;;;;;2.00;0.80;;;10.80;1.00;;;;;;5074707;28;20754;-77
2022/02/21 00:25:46;;;;;;;1.20;0.60;;;10.80;1.00;;;;;;5082947;28;20427;-77
2022/02/21 00:28:16;;;;;;;4.90;0.90;;;10.70;1.00;;;;;;5077285;28;20467;-78
2022/02/21 00:30:46;;;;;;;3.60;0.90;;;10.70;1.00;;;;;;5074567;28;20441;-78
2022/02/21 00:33:12;;;;;;;5.03;0.90;;;10.70;1.00;;;;;;5085102;28;20438;-78
2022/02/21 00:35:40;;;;;;;1.13;0.73;;;10.70;1.00;;;;;;5091364;28;20416;-78
2022/02/21 00:38:16;;;;;;;3.00;1.03;;;10.90;1.00;;;;;;5082591;28;20269;-77
2022/02/21 00:40:42;;;;;;;2.80;0.60;;;10.70;1.00;;;;;;5074107;28;20886;-77
2022/02/21 00:43:34;;;;;;;3.23;0.80;;;10.70;1.00;;;;;;5087612;28;20416;-77
2022/02/21 00:46:04;;;;;;;1.27;0.50;;;10.70;1.00;;;;;;5079818;28;20436;-77
2022/02/21 00:48:34;;;;;;;3.60;0.93;;;10.70;1.00;;;;;;5088937;28;20416;-78
2022/02/21 00:51:04;;;;;;;0.97;0.57;;;10.70;1.00;;;;;;5075920;28;20416;-78
2022/02/21 00:53:40;;;;;;;0.70;0.47;;;10.70;1.00;;;;;;5085952;28;20469;-78
2022/02/21 00:56:23;;;;;;;2.10;0.70;;;10.70;1.00;;;;;;5086974;28;20424;-77
2022/02/21 00:58:48;;;;;;;1.07;0.70;;;10.70;1.00;;;;;;5073594;28;20399;-78
2022/02/21 01:01:31;;;;;;;1.23;0.70;;;10.70;1.00;;;;;;5081857;28;20423;-78
2022/02/21 01:03:58;;;;;;;3.63;1.00;;;10.70;1.00;;;;;;5076278;28;20558;-75
2022/02/21 01:06:40;;;;;;;1.17;0.50;;;10.70;1.00;;;;;;5074207;28;20500;-76
2022/02/21 01:09:16;;;;;;;1.23;0.50;;;10.70;1.00;;;;;;5085945;28;20439;-75
2022/02/21 01:11:58;;;;;;;1.73;0.63;;;10.70;1.00;;;;;;5074944;28;20460;-75
2022/02/21 01:14:24;;;;;;;5.13;0.73;;;10.70;1.00;;;;;;5084045;28;20409;-75
2022/02/21 01:16:50;;;;;;;1.57;0.60;;;10.70;1.00;;;;;;5079837;28;20388;-76
2022/02/21 01:19:23;;;;;;;3.13;0.60;;;10.70;1.00;;;;;;5074633;28;20186;-74
2022/02/21 01:22:06;;;;;;;6.57;0.63;;;10.80;1.00;;;;;;5073405;28;20187;-75
2022/02/21 01:24:46;;;;;;;3.63;0.60;;;10.70;1.00;;;;;;5083360;28;20942;-76
2022/02/21 01:27:40;;;;;;;0.70;0.50;;;10.70;1.00;;;;;;5074761;28;20421;-75
2022/02/21 01:30:07;;;;;;;0.60;0.50;;;10.70;1.00;;;;;;5090403;28;20422;-75
2022/02/21 01:32:35;;;;;;;0.80;0.70;;;10.70;1.00;;;;;;5074041;28;20419;-77
2022/02/21 01:35:01;;;;;;;0.63;0.63;;;10.70;1.00;;;;;;5079676;28;20409;-78
2022/02/21 01:37:35;;;;;;;6.00;1.10;;;10.60;1.00;;;;;;5086502;28;20406;-78
2022/02/21 01:40:09;;;;;;;1.37;0.70;;;10.50;1.00;;;;;;5087652;28;20773;-77
2022/02/21 01:42:58;;;;;;;0.60;0.60;;;9.80;1.00;;;;;;5087599;28;20423;-76
2022/02/21 01:46:10;;;;;;;4.00;0.50;;;9.70;1.00;;;;;;5085179;28;20504;-77
2022/02/21 01:49:06;;;;;;;1.63;0.70;;;9.10;1.00;;;;;;5077128;28;20421;-76
2022/02/21 01:51:33;;;;;;;4.87;0.50;;;8.40;1.00;;;;;;5081847;28;20428;-77
2022/02/21 01:54:11;;;;;;;2.30;0.70;;;8.30;1.00;;;;;;5085932;28;20428;-76
2022/02/21 01:56:37;;;;;;;2.53;0.60;;;8.10;1.00;;;;;;5073419;28;20489;-76
2022/02/21 01:59:05;;;;;;;3.20;0.60;;;8.00;1.00;;;;;;5087402;28;20421;-76
2022/02/21 02:01:35;;;;;;;0.70;0.50;;;7.80;1.00;;;;;;5075908;28;20412;-76
2022/02/21 02:04:05;;;;;;;0.90;0.50;;;7.80;1.00;;;;;;5089006;28;20904;-76
2022/02/21 02:06:35;;;;;;;2.93;0.70;;;7.80;1.00;;;;;;5073332;28;20413;-77
2022/02/21 02:09:01;;;;;;;5.93;0.60;;;7.70;1.00;;;;;;5084819;28;20561;-76
2022/02/21 02:11:37;;;;;;;2.50;0.53;;;7.70;1.00;;;;;;5074175;28;20445;-76
2022/02/21 02:14:04;;;;;;;5.73;0.50;;;7.70;1.00;;;;;;5075489;28;20385;-76
2022/02/21 02:16:30;;;;;;;6.50;0.57;;;7.80;1.00;;;;;;5083121;28;20538;-76
2022/02/21 02:19:28;;;;;;;6.50;0.63;;;7.80;1.00;;;;;;5094592;28;20519;-76
2022/02/21 02:22:13;;;;;;;2.00;0.57;;;7.80;1.00;;;;;;5082986;28;20179;-76
2022/02/21 02:24:54;;;;;;;1.00;0.53;;;7.90;1.00;;;;;;5078586;28;20409;-76
2022/02/21 02:27:35;;;;;;;4.80;0.60;;;8.00;1.00;;;;;;5085589;28;20524;-76
2022/02/21 02:30:04;;;;;;;1.03;0.67;;;8.00;1.00;;;;;;5081558;28;20421;-76
2022/02/21 02:32:30;;;;;;;3.73;0.70;;;7.90;1.00;;;;;;5076863;28;20441;-76
2022/02/21 02:34:59;;;;;;;2.83;0.60;;;7.90;1.00;;;;;;5082680;28;20400;-77
2022/02/21 02:37:25;;;;;;;3.60;1.23;;;7.90;1.00;;;;;;5084223;28;20405;-78
2022/02/21 02:39:53;;;;;;;1.33;0.70;;;7.90;1.00;;;;;;5090075;28;20421;-77
2022/02/21 02:42:40;;;;;;;0.40;0.40;;;7.80;1.00;;;;;;5076454;28;20417;-77
2022/02/21 02:45:36;;;;;;;1.87;0.70;;;7.70;1.00;;;;;;5085829;28;20521;-77
2022/02/21 02:48:02;;;;;;;2.57;0.60;;;7.70;1.00;;;;;;5081586;28;20478;-76
2022/02/21 02:50:27;;;;;;;0.47;0.47;;;7.60;1.00;;;;;;5096476;28;20887;-78
2022/02/21 02:53:16;;;;;;;1.70;0.80;;;7.60;1.00;;;;;;5083183;28;20230;-77
2022/02/21 02:55:42;;;;;;;3.90;0.70;;;7.60;1.00;;;;;;5083099;28;20179;-77
2022/02/21 02:58:28;;;;;;;0.50;0.50;;;7.50;1.00;;;;;;5092484;28;20446;-77
2022/02/21 03:01:10;;;;;;;3.13;1.07;;;7.40;1.00;;;;;;5082112;28;20170;-77
2022/02/21 03:03:36;;;;;;;1.00;0.50;;;7.40;1.00;;;;;;5095099;28;20416;-77
2022/02/21 03:06:10;;;;;;;2.00;0.63;;;7.40;1.00;;;;;;5088088;28;20421;-77
2022/02/21 03:08:47;;;;;;;2.27;0.60;;;7.40;1.00;;;;;;5090429;28;20583;-77
2022/02/21 03:11:13;;;;;;;0.60;0.60;;;7.40;1.00;;;;;;5084905;28;20405;-77
2022/02/21 03:13:53;;;;;;;0.80;0.73;;;7.40;1.00;;;;;;5075849;28;21021;-77
2022/02/21 03:16:23;;;;;;;0.60;0.40;;;7.40;1.00;;;;;;5076156;28;20781;-77
2022/02/21 03:19:28;;;;;;;3.93;0.50;;;7.40;1.00;;;;;;5076526;28;20947;-76
2022/02/21 03:22:10;;;;;;;1.93;0.60;;;7.40;1.00;;;;;;5075780;28;20429;-77
2022/02/21 03:24:36;;;;;;;2.40;0.60;;;7.30;1.00;;;;;;5075186;28;21033;-76
2022/02/21 03:27:04;;;;;;;0.70;0.40;;;7.30;1.00;;;;;;5075234;28;20516;-76
2022/02/21 03:30:04;;;;;;;0.60;0.60;;;7.30;1.00;;;;;;5090477;28;20692;-77
2022/02/21 03:32:30;;;;;;;0.63;0.50;;;7.20;1.00;;;;;;5075756;28;20452;-77
2022/02/21 03:35:16;;;;;;;9.90;0.70;;;7.20;1.00;;;;;;5089907;28;20413;-75
2022/02/21 03:37:59;;;;;;;1.70;0.70;;;7.20;1.00;;;;;;5087500;28;20667;-74
2022/02/21 03:40:47;;;;;;;0.97;0.67;;;7.20;1.00;;;;;;5076093;28;20474;-75
2022/02/21 03:43:16;;;;;;;2.30;0.70;;;7.10;1.00;;;;;;5083855;28;20409;-75
2022/02/21 03:45:46;;;;;;;0.80;0.63;;;7.10;1.00;;;;;;5075501;28;20934;-75
2022/02/21 03:48:34;;;;;;;3.17;1.23;;;7.10;1.00;;;;;;5081712;28;20915;-76
2022/02/21 03:51:00;;;;;;;3.27;1.03;;;7.10;1.00;;;;;;5073921;28;20444;-77
2022/02/21 03:53:34;;;;;;;1.33;0.50;;;7.00;1.00;;;;;;5086509;28;20548;-76
2022/02/21 03:56:04;;;;;;;0.97;0.53;;;7.00;1.00;;;;;;5081549;28;20662;-76
2022/02/21 03:58:52;;;;;;;1.07;0.50;;;7.00;1.00;;;;;;5086555;28;20408;-76
2022/02/21 04:01:18;;;;;;;0.90;0.50;;;7.00;1.00;;;;;;5084625;28;20410;-77
2022/02/21 04:03:59;;;;;;;1.40;0.50;;;6.80;1.00;;;;;;5092667;28;20471;-77
2022/02/21 04:06:41;;;;;;;0.43;0.43;;;6.90;1.00;;;;;;5086749;28;20170;-77
2022/02/21 04:09:17;;;;;;;0.80;0.47;;;6.80;1.00;;;;;;5073948;28;20504;-77
2022/02/21 04:12:28;;;;;;;1.43;0.60;;;6.70;1.00;;;;;;5090210;28;20451;-76
2022/02/21 04:14:59;;;;;;;4.40;0.50;;;6.70;1.00;;;;;;5094472;28;20376;-77
2022/02/21 04:17:51;;;;;;;0.50;0.50;;;6.60;1.00;;;;;;5074800;28;20417;-77
2022/02/21 04:20:23;;;;;;;1.67;0.73;;;6.60;1.00;;;;;;5077489;28;20495;-77
2022/02/21 04:22:59;;;;;;;1.43;0.60;;;6.50;1.00;;;;;;5088646;28;20911;-76
2022/02/21 04:25:41;;;;;;;1.57;0.80;;;6.40;1.00;;;;;;5085977;28;20431;-76
2022/02/21 04:28:11;;;;;;;1.03;0.50;;;6.40;1.00;;;;;;5077548;28;20780;-76
2022/02/21 04:30:41;;;;;;;2.60;0.60;;;6.30;1.00;;;;;;5075750;28;20449;-76
2022/02/21 04:33:23;;;;;;;3.43;0.70;;;6.30;1.00;;;;;;5087848;28;20967;-76
2022/02/21 04:35:59;;;;;;;2.80;0.63;;;6.20;1.00;;;;;;5087187;28;20424;-77
2022/02/21 04:39:04;;;;;;;0.50;0.50;;;6.20;1.00;;;;;;5075321;28;20508;-76
2022/02/21 04:44:59;;;;;;;0.60;0.40;;;6.10;1.00;;;;;;5074819;28;20555;-77
2022/02/21 04:47:41;;;;;;;2.97;0.60;;;6.00;1.00;;;;;;5083301;28;20765;-77
2022/02/21 04:50:07;;;;;;;0.63;0.50;;;6.00;1.00;;;;;;5074463;28;20746;-75
2022/02/21 04:52:34;;;;;;;1.20;0.57;;;6.00;1.00;;;;;;5077229;28;20467;-75
2022/02/21 04:55:06;;;;;;;1.03;0.87;;;6.10;1.00;;;;;;5072802;28;20423;-77
2022/02/21 04:57:47;;;;;;;1.33;0.50;;;6.00;1.00;;;;;;5084476;28;20420;-75
2022/02/21 05:00:17;;;;;;;5.87;0.70;;;6.00;1.00;;;;;;5076363;28;20412;-75
2022/02/21 05:02:58;;;;;;;1.37;0.53;;;6.00;1.00;;;;;;5085914;28;20420;-75
2022/02/21 05:06:10;;;;;;;1.40;0.90;;;6.00;1.00;;;;;;5076610;28;20409;-75
2022/02/21 05:08:36;;;;;;;3.60;0.53;;;6.00;1.00;;;;;;5091834;28;20424;-74
2022/02/21 05:11:02;;;;;;;6.87;0.60;;;6.10;1.00;;;;;;5083003;28;20439;-74
2022/02/21 05:13:29;;;;;;;0.83;0.70;;;;;;;;;;5093988;28;20190;-74
2022/02/21 05:15:59;;;;;;;1.90;0.83;;;6.00;1.00;;;;;;5080215;28;20427;-74
2022/02/21 05:18:34;;;;;;;5.70;0.90;;;6.10;1.00;;;;;;5075314;28;20433;-74
2022/02/21 05:21:00;;;;;;;4.13;0.70;;;6.00;1.00;;;;;;5075049;28;20815;-77
2022/02/21 05:23:41;;;;;;;2.03;0.70;;;6.00;1.00;;;;;;5076225;28;20500;-77
2022/02/21 05:26:34;;;;;;;1.13;0.50;;;6.10;1.00;;;;;;5073222;28;20261;-77
2022/02/21 05:29:00;;;;;;;1.33;0.60;;;6.00;1.00;;;;;;5075208;28;20418;-76
2022/02/21 05:31:29;;;;;;;1.50;0.70;;;6.00;1.00;;;;;;5077252;28;20473;-76
2022/02/21 05:33:59;;;;;;;1.43;0.70;;;5.90;1.00;;;;;;5084739;28;20831;-76
2022/02/21 05:36:41;;;;;;;5.30;0.90;;;5.90;1.00;;;;;;5076125;28;20402;-76
2022/02/21 05:39:18;;;;;;;8.70;1.03;;;5.90;1.00;;;;;;5073508;28;20409;-77
2022/02/21 05:41:47;;;;;;;0.97;0.70;;;5.90;1.00;;;;;;5075748;28;20777;-76
2022/02/21 05:44:58;;;;;;;1.73;1.10;;;5.90;1.00;;;;;;5073563;28;20397;-76
2022/02/21 05:47:24;;;;;;;2.30;0.70;;;5.90;1.00;;;;;;5074560;28;20413;-76
2022/02/21 05:49:50;;;;;;;6.00;0.90;;;6.00;1.00;;;;;;5089095;28;20424;-74
2022/02/21 05:52:16;;;;;;;10.93;1.13;;;;;;;;;;5088921;28;20665;-75
2022/02/21 05:54:43;;;;;;;5.07;0.87;;;5.90;1.00;;;;;;5089561;28;20424;-74
2022/02/21 05:57:11;;;;;;;5.03;0.73;;;5.90;1.00;;;;;;5077707;28;20741;-75
2022/02/21 05:59:41;;;;;;;2.50;0.73;;;5.80;1.00;;;;;;5085289;28;20499;-75
2022/02/21 06:02:06;;;;;;;1.47;0.77;;;5.80;1.00;;;;;;5088703;28;20987;-74
2022/02/21 06:04:47;;;;;;;6.13;0.97;;;5.90;1.00;;;;;;5089654;28;20417;-75
2022/02/21 06:07:29;;;;;;;9.20;0.70;;;6.00;1.00;;;;;;5082027;28;20202;-77
2022/02/21 06:10:05;;;;;;;5.10;0.77;;;6.00;1.00;;;;;;5085198;28;20863;-77
2022/02/21 06:12:31;;;;;;;3.63;0.70;;;6.00;1.00;;;;;;5080809;28;20492;-77
2022/02/21 06:14:59;;;;;;;3.73;0.87;;;6.00;1.00;;;;;;5089081;28;20497;-77
2022/02/21 06:17:35;;;;;;;3.97;0.90;;;5.90;1.00;;;;;;5082925;28;20409;-78
2022/02/21 06:20:00;;;;;;;7.27;0.93;;;5.90;1.00;;;;;;5091419;28;20416;-76
2022/02/21 06:22:26;;;;;;;4.13;0.67;;;5.90;1.00;;;;;;5090453;28;20439;-76
2022/02/21 06:24:59;;;;;;;1.53;1.00;;;5.90;1.00;;;;;;5080223;28;20432;-76
2022/02/21 06:27:35;;;;;;;3.00;1.67;;;5.90;1.00;;;;;;5083870;28;20665;-76
2022/02/21 06:30:11;;;;;;;2.33;0.50;;;5.90;1.00;;;;;;5081291;28;20420;-75
2022/02/21 06:32:37;;;;;;;4.10;0.80;;;5.90;1.00;;;;;;5080223;28;20452;-76
2022/02/21 06:35:03;;;;;;;3.60;0.80;;;5.90;1.00;;;;;;5078983;28;20409;-76
2022/02/21 06:37:29;;;;;;;7.10;1.13;;;5.90;1.00;;;;;;5090252;28;20164;-76
2022/02/21 06:39:54;;;;;;;3.50;0.90;;;5.90;1.00;;;;;;5076533;28;20726;-76
2022/02/21 06:42:20;;;;;;;0.70;0.57;;;5.90;1.00;;;;;;5081897;28;20523;-76
2022/02/21 06:44:46;;;;;;;2.23;0.57;;;6.00;1.00;;;;;;5075828;28;20661;-76
2022/02/21 06:47:11;;;;;;;6.37;1.27;;;6.00;1.00;;;;;;5075480;28;20233;-76
2022/02/21 06:49:38;;;;;;;3.27;1.10;;;6.00;1.00;;;;;;5074087;28;20179;-76
2022/02/21 06:52:05;;;;;;;1.83;0.60;;;6.10;1.00;;;;;;5090274;28;20232;-76
2022/02/21 06:54:30;;;;;;;4.17;0.67;;;6.10;1.00;;;;;;5082114;28;20437;-76
2022/02/21 06:56:56;;;;;;;5.77;0.93;;;6.10;1.00;;;;;;5087019;28;20449;-76
2022/02/21 06:59:22;;;;;;;3.77;0.90;;;;;;;;;;5076650;28;20174;-76
2022/02/21 07:01:48;;;;;;;5.50;1.20;;;;;;;;;;5075169;28;20223;-76
2022/02/21 07:04:13;;;;;;;3.17;0.87;;;6.10;1.00;;;;;;5079679;28;20452;-76
2022/02/21 07:06:39;;;;;;;3.60;0.80;;;6.20;1.00;;;;;;5095229;28;20761;-76
2022/02/21 07:09:05;;;;;;;2.57;0.70;;;6.20;1.00;;;;;;5086199;28;20186;-74
2022/02/21 07:11:31;;;;;;;2.00;0.97;;;6.40;1.00;;;;;;5094191;28;20747;-74
2022/02/21 07:13:56;;;;;;;3.57;0.67;;;6.40;1.00;;;;;;5085427;28;20519;-74
2022/02/21 07:16:22;;;;;;;3.07;0.70;;;6.50;1.00;;;;;;5087055;28;20761;-75
2022/02/21 07:18:48;;;;;;;7.13;0.87;;;8.40;1.00;;;;;;5082598;28;20195;-75
2022/02/21 07:21:14;;;;;;;1.00;0.63;;;;;;;;;;5081619;28;20429;-74
2022/02/21 07:23:40;;;;;;;1.73;0.50;;;6.50;1.00;;;;;;5080528;28;20416;-76
2022/02/21 07:26:06;;;;;;;1.13;0.70;;;;;;;;;;5094650;28;20416;-75
2022/02/21 07:28:33;;;;;;;2.13;0.50;;;;;;;;;;5092405;28;20945;-75
2022/02/21 07:30:59;;;;;;;0.50;0.47;;;;;;;;;;5080528;28;20410;-75
2022/02/21 07:33:25;;;;;;;2.83;0.40;;;;;;;;;;5074251;28;20472;-75
2022/02/21 07:35:51;;;;;;;0.80;0.57;;;;;;;;;;5078802;28;20405;-74
2022/02/21 07:38:17;;;;;;;2.50;0.60;;;;;;;;;;5075617;28;20897;-75
2022/02/21 07:40:43;;;;;;;5.50;0.40;;;;;;;;;;5083623;28;20491;-75
2022/02/21 07:43:10;;;;;;;1.03;0.70;;;;;;;;;;5079599;28;20497;-74
2022/02/21 07:45:36;;;;;;;0.30;0.30;;;;;;;;;;5080003;28;20850;-74
2022/02/21 07:48:02;;;;;;;2.20;0.50;;;4.70;1.00;;;;;;5074334;28;20421;-74
2022/02/21 07:50:30;;;;;;;1.53;0.53;;;;;;;;;;5079463;28;20494;-76
2022/02/21 07:52:57;;;;;;;0.80;0.50;;;4.60;1.00;;;;;;5074201;28;20220;-76
2022/02/21 07:55:24;;;;;;;4.23;0.90;;;4.60;1.00;;;;;;5080895;28;20916;-76
2022/02/21 07:57:50;;;;;;;7.00;0.80;;;4.50;1.00;;;;;;5084257;28;20456;-76
2022/02/21 08:00:20;;;;;;;3.40;0.63;;;4.70;1.00;;;;;;5074386;28;20457;-75
2022/02/21 08:02:46;;;;;;;1.73;0.80;;;4.70;1.00;;;;;;5079824;28;20538;-76
2022/02/21 08:05:12;;;;;;;9.63;0.87;;;4.80;1.00;;;;;;5083937;28;20429;-76
2022/02/21 08:07:38;;;;;;;4.73;0.80;;;5.30;1.00;;;;;;5074338;28;20504;-74
2022/02/21 08:10:05;;;;;;;1.27;0.77;;;5.10;1.00;;;;;;5073837;28;20534;-74
2022/02/21 08:12:31;;;;;;;7.67;0.60;;;5.40;1.00;;;;;;5073473;28;20461;-74
2022/02/21 08:14:57;;;;;;;1.23;0.50;;;5.50;1.00;;;;;;5073619;28;20516;-74
2022/02/21 08:17:24;;;;;;;2.93;1.13;;;5.40;1.00;;;;;;5073796;28;20409;-74
2022/02/21 08:19:50;;;;;;;3.57;1.00;;;5.50;1.00;;;;;;5085404;28;20439;-74
2022/02/21 08:22:16;;;;;;;1.10;0.60;;;;;;;;;;5074004;28;20515;-76
2022/02/21 08:24:42;;;;;;;4.10;0.87;;;;;;;;;;5082811;28;20179;-76
2022/02/21 08:27:08;;;;;;;3.97;0.70;;;;;;;;;;5074333;28;20463;-76
2022/02/21 08:29:34;;;;;;;4.10;0.67;;;;;;;;;;5087285;28;20491;-76
2022/02/21 08:32:00;;;;;;;3.63;0.60;;;;;;;;;;5073554;28;20452;-76
2022/02/21 08:34:28;;;;;;;1.23;0.60;;;5.50;1.00;;;;;;5073488;28;20496;-76
2022/02/21 08:36:54;;;;;;;0.80;0.50;;;5.60;1.00;;;;;;5072738;28;20435;-77
2022/02/21 08:39:20;;;;;;;3.40;0.70;;;5.50;1.00;;;;;;5075640;28;20413;-76
2022/02/21 08:41:46;;;;;;;3.60;0.43;;;6.50;1.00;;;;;;5092534;28;20614;-76
2022/02/21 08:44:11;;;;;;;2.63;0.40;;;5.50;1.00;;;;;;5085130;28;20429;-76
2022/02/21 08:46:37;;;;;;;1.27;0.53;;;;;;;;;;5073276;28;20195;-76
2022/02/21 08:49:05;;;;;;;2.47;0.70;;;5.60;1.00;;;;;;5086534;28;20257;-76
2022/02/21 08:51:31;;;;;;;1.40;0.50;;;;;;;;;;5077054;28;20428;-75
2022/02/21 08:53:56;;;;;;;2.83;0.40;;;5.70;1.00;;;;;;5088248;28;20807;-75
2022/02/21 08:56:22;;;;;;;1.63;0.60;;;5.70;1.00;;;;;;5073751;28;20421;-75
2022/02/21 08:58:48;;;;;;;1.03;0.70;;;5.70;1.00;;;;;;5088835;28;20629;-76
2022/02/21 09:01:14;;;;;;;2.40;0.50;;;;;;;;;;5082047;28;20182;-75
2022/02/21 09:03:41;;;;;;;1.00;0.60;;;;;;;;;;5063711;28;20451;-76
2022/02/21 09:06:08;;;;;;;12.00;1.00;;;5.80;1.00;;;;;;5084130;28;20794;-75
2022/02/21 09:08:34;;;;;;;3.17;0.50;;;5.80;1.00;;;;;;5084731;28;20943;-74
2022/02/21 09:11:01;;;;;;;0.90;0.50;;;5.90;1.00;;;;;;5078672;28;20420;-75
2022/02/21 09:13:29;;;;;;;0.73;0.40;;;6.00;1.00;;;;;;5077361;28;20460;-76
2022/02/21 09:15:54;;;;;;;6.93;0.87;;;6.00;1.00;;;;;;5074419;28;20426;-75
2022/02/21 09:18:20;;;;;;;7.70;0.70;;;6.10;1.00;;;;;;5072679;28;20979;-75
2022/02/21 09:20:46;;;;;;;3.60;1.00;;;;;;;;;;5073566;28;20171;-75
2022/02/21 09:23:12;;;;;;;1.00;0.60;;;6.40;1.00;;;;;;5080674;28;20197;-77
2022/02/21 09:25:37;;;;;;;0.80;0.80;;;6.50;1.00;;;;;;5085867;28;20796;-76
2022/02/21 09:28:03;;;;;;;4.10;0.60;;;;;;;;;;5084047;28;20569;-77
2022/02/21 09:30:29;;;;;;;1.03;0.50;;;6.90;1.00;;;;;;5076629;28;20649;-78
2022/02/21 09:32:55;;;;;;;0.90;0.43;;;;;;;;;;5076878;28;20496;-78
2022/02/21 09:35:23;;;;;;;2.20;0.97;;;;;;;;;;5075774;28;20178;-77
2022/02/21 09:37:49;;;;;;;2.63;0.70;;;;;;;;;;5076850;28;20463;-75
2022/02/21 09:40:16;;;;;;;5.77;1.00;;;;;;;;;;5076524;28;20416;-75
2022/02/21 09:42:45;;;;;;;2.40;0.97;;;;;;;;;;5075156;28;20850;-75
2022/02/21 09:45:11;;;;;;;8.40;1.03;;;;;;;;;;5083490;28;20428;-75
2022/02/21 09:47:37;;;;;;;2.87;0.60;;;;;;;;;;5071149;28;20424;-74
2022/02/21 09:50:06;;;;;;;4.27;0.80;;;7.40;1.00;;;;;;5073297;28;20424;-75
2022/02/21 09:52:32;;;;;;;2.60;0.90;;;;;;;;;;5076147;28;20460;-77
2022/02/21 09:54:59;;;;;;;5.60;0.80;;;;;;;;;;5075049;28;20912;-77
2022/02/21 09:57:25;;;;;;;6.80;1.07;;;;;;;;;;5073174;28;20491;-77
2022/02/21 09:59:51;;;;;;;1.87;0.70;;;;;;;;;;5080923;28;20406;-77
2022/02/21 10:02:26;;;;;;;4.80;0.80;;;8.00;1.00;;;;;;5072563;28;20437;-78
2022/02/21 10:05:14;;;;;;;2.20;0.70;;;8.10;1.00;;;;;;5074675;28;20435;-76
2022/02/21 10:07:42;;;;;;;6.07;1.00;;;7.80;1.00;;;;;;5074935;28;20439;-80
2022/02/21 10:10:09;;;;;;;3.90;0.90;;;7.80;1.00;;;;;;5082764;28;20424;-80
2022/02/21 10:12:50;;;;;;;9.33;0.90;;;8.20;1.00;;;;;;5070944;28;20994;-79
2022/02/21 10:15:21;;;;;;;6.60;0.93;;;8.20;1.00;;;;;;5083140;28;20432;-75
2022/02/21 10:17:48;;;;;;;1.57;0.63;;;8.20;1.00;;;;;;5072203;28;20638;-74
2022/02/21 10:20:15;;;;;;;4.10;0.73;;;8.20;1.00;;;;;;5072301;28;20425;-74
2022/02/21 10:23:00;;;;;;;0.70;0.50;;;8.30;1.00;;;;;;5072425;28;20433;-77
2022/02/21 10:25:25;;;;;;;4.50;0.83;;;8.20;1.00;;;;;;5075876;28;20459;-78
2022/02/21 10:27:51;;;;;;;5.33;1.23;;;8.20;1.00;;;;;;5072803;28;20447;-77
2022/02/21 10:30:17;;;;;;;3.57;1.00;;;9.10;1.00;;;;;;5080921;28;20175;-77
2022/02/21 10:32:44;;;;;;;2.13;0.70;;;8.60;1.00;;;;;;5072507;28;20194;-77
2022/02/21 10:35:38;;;;;;;4.80;0.70;;;9.20;1.00;;;;;;5085702;28;20702;-77
2022/02/21 10:38:03;;;;;;;5.80;0.90;;;8.50;1.00;;;;;;5029901;28;20431;-77
2022/02/21 10:40:36;;;;;;;0.63;0.63;;;8.50;1.00;;;;;;5025731;28;20530;-78
2022/02/21 10:43:17;;;;;;;2.43;0.70;;;8.30;1.00;;;;;;5028718;28;20188;-77
2022/02/21 10:45:44;;;;;;;0.97;0.60;;;8.20;1.00;;;;;;5027616;28;20505;-77
2022/02/21 10:48:20;;;;;;;3.43;0.63;;;8.10;1.00;;;;;;5032695;28;20755;-77
2022/02/21 10:50:58;;;;;;;3.30;0.37;;;8.00;1.00;;;;;;5032684;28;20820;-76
2022/02/21 10:53:34;;;;;;;1.10;0.43;;;8.30;1.00;;;;;;5005074;28;20482;-79
2022/02/21 10:56:00;;;;;;;1.10;0.53;;;8.00;1.00;;;;;;5018423;28;20540;-77
2022/02/21 10:58:26;;;;;;;2.17;0.60;;;8.50;1.00;;;;;;5030976;28;20481;-77
2022/02/21 11:00:55;;;;;;;18.97;1.30;;;8.30;1.00;;;;;;5022943;28;20193;-77
2022/02/21 11:03:23;;;;;;;5.90;0.70;;;8.10;1.00;;;;;;5028391;28;20489;-76
2022/02/21 11:05:51;;;;;;;1.17;0.57;;;8.10;1.00;;;;;;5029534;28;20443;-76
2022/02/21 11:08:19;;;;;;;4.83;0.97;;;8.10;1.00;;;;;;5031611;28;20439;-74
2022/02/21 11:10:55;;;;;;;1.97;1.17;;;8.10;1.00;;;;;;5019714;28;20483;-74
2022/02/21 11:13:21;;;;;;;1.03;0.70;;;8.10;1.00;;;;;;5025400;28;20869;-75
2022/02/21 11:15:50;;;;;;;5.17;0.60;;;8.20;1.00;;;;;;5075588;28;20426;-75
2022/02/21 11:18:35;;;;;;;4.60;0.57;;;8.80;1.00;;;;;;5085361;28;20249;-75
2022/02/21 11:21:02;;;;;;;4.13;0.87;;;8.20;1.00;;;;;;5079931;28;21007;-74
2022/02/21 11:23:31;;;;;;;7.63;0.53;;;8.30;1.00;;;;;;5088943;28;20503;-76
2022/02/21 11:26:04;;;;;;;0.40;0.40;;;8.90;1.00;;;;;;5075164;28;20433;-76
2022/02/21 11:28:38;;;;;;;2.83;0.63;;;8.90;1.00;;;;;;5076253;28;20952;-77
2022/02/21 11:31:06;;;;;;;1.07;0.83;;;8.50;1.00;;;;;;5079555;28;20425;-76
2022/02/21 11:33:52;;;;;;;3.80;0.77;;;8.50;1.00;;;;;;5085376;28;20460;-77
2022/02/21 11:36:20;;;;;;;3.00;0.43;;;;;;;;;;5078500;28;20429;-77
2022/02/21 11:38:47;;;;;;;0.80;0.40;;;;;;;;;;5075013;28;20965;-75
2022/02/21 11:41:14;;;;;;;1.13;0.50;;;8.70;1.00;;;;;;5076089;28;20417;-75
2022/02/21 11:43:45;;;;;;;1.80;0.60;;;8.50;1.00;;;;;;5074676;28;20522;-75
2022/02/21 11:46:24;;;;;;;2.50;0.60;;;8.50;1.00;;;;;;5076889;28;20456;-76
2022/02/21 11:49:00;;;;;;;3.17;1.17;;;8.50;1.00;;;;;;5074289;28;20425;-75
2022/02/21 11:51:31;;;;;;;2.10;0.37;;;8.30;1.00;;;;;;5075075;28;20416;-75
2022/02/21 11:54:29;;;;;;;1.47;0.67;;;8.30;1.00;;;;;;5084707;28;20460;-76
2022/02/21 11:56:59;;;;;;;5.63;0.57;;;8.30;1.00;;;;;;5046195;28;20422;-77
2022/02/21 11:59:25;;;;;;;1.87;0.70;;;8.30;1.00;;;;;;5049671;28;20472;-77
2022/02/21 12:02:06;;;;;;;4.93;0.67;;;8.30;1.00;;;;;;5051818;28;20425;-77
2022/02/21 12:04:59;;;;;;;1.77;0.60;;;8.50;1.00;;;;;;5028687;28;20419;-77
2022/02/21 12:07:26;;;;;;;1.50;0.50;;;8.50;1.00;;;;;;5048260;28;20414;-77
2022/02/21 12:10:21;;;;;;;8.70;0.87;;;8.60;1.00;;;;;;5049701;28;20937;-75
2022/02/21 12:12:57;;;;;;;0.90;0.90;;;8.60;1.00;;;;;;5043594;28;20463;-75
2022/02/21 12:15:25;;;;;;;2.00;0.77;;;8.60;1.00;;;;;;5045460;28;20484;-75
2022/02/21 12:18:03;;;;;;;1.47;0.50;;;8.60;1.00;;;;;;5051326;28;20410;-74
2022/02/21 12:20:32;;;;;;;1.83;0.77;;;8.50;1.00;;;;;;5050343;28;20434;-75
2022/02/21 12:23:08;;;;;;;6.43;0.70;;;8.50;1.00;;;;;;5042210;28;20450;-75
2022/02/21 12:25:39;;;;;;;1.67;0.50;;;8.50;1.00;;;;;;5034016;28;20925;-75
2022/02/21 12:28:22;;;;;;;6.10;0.60;;;8.70;1.00;;;;;;5044717;28;20703;-75
2022/02/21 12:30:54;;;;;;;1.73;0.50;;;8.50;1.00;;;;;;5051355;28;20432;-76
2022/02/21 12:33:26;;;;;;;1.57;0.50;;;8.50;1.00;;;;;;5061521;28;20505;-76
2022/02/21 12:35:53;;;;;;;2.07;0.63;;;8.50;1.00;;;;;;5073726;28;20940;-76
2022/02/21 12:38:21;;;;;;;1.17;0.60;;;8.50;1.00;;;;;;5073634;28;20839;-75
2022/02/21 12:41:08;;;;;;;1.13;0.43;;;8.50;1.00;;;;;;5073631;28;20425;-75
2022/02/21 12:43:43;;;;;;;1.70;0.60;;;8.70;1.00;;;;;;5079196;28;20404;-75
2022/02/21 12:46:09;;;;;;;1.13;0.50;;;8.70;1.00;;;;;;5077230;28;20421;-75
2022/02/21 12:48:39;;;;;;;7.90;1.40;;;8.60;1.00;;;;;;5073369;28;20424;-75
2022/02/21 12:51:05;;;;;;;7.13;1.03;;;8.50;1.00;;;;;;5073475;28;20198;-75
2022/02/21 12:53:32;;;;;;;3.60;0.60;;;8.40;1.00;;;;;;5078423;28;20465;-75
2022/02/21 12:56:01;;;;;;;1.77;0.57;;;8.30;1.00;;;;;;5079117;28;20903;-76
2022/02/21 12:58:37;;;;;;;1.47;0.77;;;8.30;1.00;;;;;;5082294;28;20644;-75
2022/02/21 13:01:15;;;;;;;1.23;0.70;;;8.30;1.00;;;;;;5073237;28;20474;-75
2022/02/21 13:03:41;;;;;;;0.97;0.67;;;8.30;1.00;;;;;;5081481;28;20773;-75
2022/02/21 13:06:11;;;;;;;1.50;0.50;;;8.30;1.00;;;;;;5073020;28;20413;-75
2022/02/21 13:08:38;;;;;;;1.00;0.70;;;8.30;1.00;;;;;;5079379;28;20424;-76
2022/02/21 13:11:04;;;;;;;0.53;0.50;;;8.30;1.00;;;;;;5081230;28;20429;-76
2022/02/21 13:13:30;;;;;;;2.93;0.90;;;8.40;1.00;;;;;;5073649;28;20461;-76
2022/02/21 13:15:56;;;;;;;5.13;0.80;;;8.30;1.00;;;;;;5072893;28;20425;-76
2022/02/21 13:18:21;;;;;;;1.47;0.50;;;8.30;1.00;;;;;;5077943;28;20512;-76
2022/02/21 13:20:47;;;;;;;55.40;2.07;;;8.10;1.00;;;;;;5071447;28;20205;-76
2022/02/21 13:23:14;;;;;;;2.17;0.90;;;8.10;1.00;;;;;;5082378;28;20666;-76
2022/02/21 13:25:41;;;;;;;2.13;0.57;;;8.00;1.00;;;;;;5081635;28;20228;-77
2022/02/21 13:28:19;;;;;;;3.73;0.93;;;7.90;1.00;;;;;;5076380;28;20448;-76
2022/02/21 13:30:45;;;;;;;1.33;0.43;;;8.00;1.00;;;;;;5075917;28;20499;-76
2022/02/21 13:33:11;;;;;;;2.43;0.80;;;8.00;1.00;;;;;;5090010;28;20535;-74
2022/02/21 13:35:38;;;;;;;3.80;0.70;;;8.00;1.00;;;;;;5080441;28;20520;-73
2022/02/21 13:38:04;;;;;;;3.43;0.80;;;8.10;1.00;;;;;;5080816;28;20425;-77
2022/02/21 13:40:34;;;;;;;2.10;0.70;;;8.00;1.00;;;;;;5077224;28;20946;-74
2022/02/21 13:43:02;;;;;;;2.30;0.50;;;8.10;1.00;;;;;;5074245;28;20175;-75
2022/02/21 13:45:47;;;;;;;2.13;1.13;;;8.10;1.00;;;;;;5079762;28;20433;-75